Time;durP1;ratioP1;P1;durP2;ratioP2;P2;SDS_P1;SDS_P2;PMS_P1;PMS_P2;Temp;Humidity;BMP_temperature;BMP_pressure;BME280_temperature;BME280_humidity;BME280_pressure;Samples;Min_cycle;Max_cycle;Signal;HPM_P1;HPM_P2
2021/03/28 00:01:18;;;;;;;92.10;51.83;;;;;;;12.75;40.05;101515.67;1741979;81;21208;-80
2021/03/28 00:03:57;;;;;;;98.27;54.08;;;;;;;12.74;40.01;101508.11;1758191;81;21180;-76
2021/03/28 00:06:36;;;;;;;92.50;53.02;;;;;;;12.67;40.15;101506.52;1748354;81;21404;-80
2021/03/28 00:09:29;;;;;;;95.12;54.95;;;;;;;12.64;40.25;101505.95;1717439;82;21220;-81
2021/03/28 00:12:23;;;;;;;97.97;53.63;;;;;;;12.58;40.34;101503.83;1736937;80;21210;-79
2021/03/28 00:15:14;;;;;;;84.40;50.23;;;;;;;12.53;40.44;101504.77;1773604;79;21189;-81
2021/03/28 00:17:49;;;;;;;93.90;52.27;;;;;;;12.50;40.38;101507.77;1751225;80;21241;-84
2021/03/28 00:20:22;;;;;;;90.32;51.73;;;;;;;12.48;40.40;101501.17;1773745;80;21600;-84
2021/03/28 00:23:14;;;;;;;95.12;52.03;;;;;;;12.49;40.43;101508.27;1774180;80;21090;-85
2021/03/28 00:26:01;;;;;;;91.40;52.40;;;;;;;12.48;40.47;101508.39;1774553;79;21175;-79
2021/03/28 00:28:45;;;;;;;92.92;51.60;;;;;;;12.45;40.55;101505.52;1774149;80;21180;-78
2021/03/28 00:31:34;;;;;;;96.12;52.55;;;;;;;12.43;40.65;101507.48;1797186;78;21551;-79
2021/03/28 00:34:16;;;;;;;91.80;50.67;;;;;;;12.41;40.70;101513.51;1816501;78;21542;-76
2021/03/28 00:36:52;;;;;;;88.97;50.15;;;;;;;12.33;40.84;101506.66;1762785;80;21138;-83
2021/03/28 00:39:52;;;;;;;85.22;49.95;;;;;;;12.31;40.84;101511.30;1748212;81;21181;-83
2021/03/28 00:42:39;;;;;;;89.75;49.40;;;;;;;12.30;40.76;101519.02;1797604;79;21082;-85
2021/03/28 00:45:36;;;;;;;89.50;50.95;;;;;;;12.28;40.75;101515.15;1757651;81;21097;-78
2021/03/28 00:48:21;;;;;;;92.27;51.23;;;;;;;12.29;40.74;101513.30;1761466;80;21138;-81
2021/03/28 00:51:06;;;;;;;89.67;52.38;;;;;;;12.26;40.75;101514.92;1786627;80;21078;-77
2021/03/28 00:53:45;;;;;;;89.13;50.55;;;;;;;12.27;40.80;101512.61;1772854;80;21130;-82
2021/03/28 00:56:35;;;;;;;89.80;52.83;;;;;;;12.28;40.78;101514.30;1799465;79;21130;-79
2021/03/28 00:59:29;;;;;;;95.62;52.10;;;;;;;12.29;40.77;101513.30;1786708;80;21165;-80
2021/03/28 01:02:14;;;;;;;86.57;48.23;;;;;;;12.30;40.70;101514.49;1760276;80;21006;-78
2021/03/28 01:05:23;;;;;;;89.28;49.63;;;;;;;12.31;40.73;101512.19;1755695;81;21134;-84
2021/03/28 01:08:02;;;;;;;85.05;47.00;;;;;;;12.29;40.75;101515.99;1799239;79;21082;-81
2021/03/28 01:10:52;;;;;;;83.00;49.08;;;;;;;12.26;40.73;101513.58;1763161;80;21069;-81
2021/03/28 01:14:11;;;;;;;82.97;47.90;;;;;;;12.23;40.75;101513.89;1755240;81;21200;-80
2021/03/28 01:17:18;;;;;;;84.67;48.98;;;;;;;12.22;40.82;101509.02;1755512;81;21068;-78
2021/03/28 01:20:00;;;;;;;86.00;48.30;;;;;;;12.17;40.92;101509.45;1755700;81;21124;-84
2021/03/28 01:22:51;;;;;;;83.60;47.75;;;;;;;12.14;40.97;101508.37;1755510;81;21128;-80
2021/03/28 01:25:43;;;;;;;81.92;47.88;;;;;;;12.13;41.06;101505.84;1732060;81;21106;-81
2021/03/28 01:28:43;;;;;;;88.20;47.33;;;;;;;12.10;41.13;101508.31;1755880;81;21089;-82
2021/03/28 01:31:28;;;;;;;86.78;47.27;;;;;;;12.09;41.07;101509.80;1755326;81;21504;-78
2021/03/28 01:34:16;;;;;;;83.80;50.12;;;;;;;12.09;41.05;101514.67;1755605;81;21097;-78
2021/03/28 01:36:51;;;;;;;88.52;49.08;;;;;;;12.07;41.13;101508.58;1755590;81;21156;-77
2021/03/28 01:39:31;;;;;;;91.22;49.48;;;;;;;12.04;41.20;101509.38;1755321;81;21143;-80
2021/03/28 01:42:03;;;;;;;85.53;49.10;;;;;;;12.00;41.31;101512.84;1754314;81;21097;-77
2021/03/28 01:44:51;;;;;;;94.92;50.65;;;;;;;11.97;41.38;101515.80;1754578;81;21084;-80
2021/03/28 01:48:17;;;;;;;91.63;50.28;;;;;;;11.93;41.38;101513.88;1728144;81;21092;-79
2021/03/28 01:50:59;;;;;;;83.62;48.17;;;;;;;11.90;41.43;101517.38;1732035;81;21128;-82
2021/03/28 01:53:35;;;;;;;85.47;48.55;;;;;;;11.85;41.43;101522.28;1732081;81;21208;-83
2021/03/28 01:56:26;;;;;;;94.97;50.78;;;;;;;11.82;41.53;101521.21;1755023;81;21618;-80
2021/03/28 01:59:24;;;;;;;86.60;47.33;;;;;;;11.77;41.64;101524.81;1720170;81;21164;-81
2021/03/28 02:02:23;;;;;;;94.20;50.67;;;;;;;11.68;41.78;101522.47;1732090;81;21060;-81
2021/03/28 02:05:14;;;;;;;87.95;48.73;;;;;;;11.69;41.78;101524.16;1755610;81;21168;-80
2021/03/28 02:08:10;;;;;;;91.20;50.60;;;;;;;11.65;41.88;101529.45;1737943;81;21153;-78
2021/03/28 02:11:03;;;;;;;83.47;46.88;;;;;;;11.65;41.79;101525.42;1758581;80;21197;-81
2021/03/28 02:14:20;;;;;;;79.10;45.83;;;;;;;11.65;41.77;101520.90;1724735;82;21616;-78
2021/03/28 02:17:00;;;;;;;77.22;44.35;;;;;;;11.64;41.86;101524.58;1716696;83;21162;-82
2021/03/28 02:19:29;;;;;;;78.22;44.83;;;;;;;11.63;41.90;101520.70;1713541;83;21216;-81
2021/03/28 02:22:24;;;;;;;80.57;45.63;;;;;;;11.61;41.94;101519.48;1715475;83;21221;-79
2021/03/28 02:25:15;;;;;;;80.90;46.68;;;;;;;11.60;41.95;101524.50;1772609;80;21188;-81
2021/03/28 02:28:08;;;;;;;79.97;46.42;;;;;;;11.58;41.91;101522.46;1772809;80;21185;-82
2021/03/28 02:30:56;;;;;;;80.07;46.20;;;;;;;11.57;41.85;101527.45;1773214;80;21177;-79
2021/03/28 02:33:29;;;;;;;72.03;42.25;;;;;;;11.57;41.79;101523.42;1774076;80;26363;-81
2021/03/28 02:36:37;;;;;;;74.15;43.10;;;;;;;11.57;41.78;101526.11;1774302;80;21161;-84
2021/03/28 02:39:13;;;;;;;75.95;44.35;;;;;;;11.58;41.82;101521.58;1778687;79;21197;-79
2021/03/28 02:42:14;;;;;;;71.22;43.10;;;;;;;11.59;41.76;101523.30;1805309;79;21063;-80
2021/03/28 02:45:01;;;;;;;74.53;45.03;;;;;;;11.55;41.70;101518.70;1806118;79;21157;-83
2021/03/28 02:48:04;;;;;;;73.78;42.03;;;;;;;11.50;41.74;101526.32;1799764;78;21161;-78
2021/03/28 02:51:12;;;;;;;69.10;42.58;;;;;;;11.46;41.82;101518.19;1802509;79;21063;-80
2021/03/28 02:54:18;;;;;;;68.87;42.27;;;;;;;11.43;41.84;101516.62;1782824;79;21497;-80
2021/03/28 02:57:24;;;;;;;77.32;42.15;;;;;;;11.45;41.86;101521.86;1789978;79;21652;-81
2021/03/28 03:00:09;;;;;;;72.60;42.08;;;;;;;11.46;41.87;101518.69;1806429;79;21066;-83
2021/03/28 03:02:42;;;;;;;69.60;41.00;;;;;;;11.44;41.87;101518.80;1805860;79;21133;-83
2021/03/28 03:05:32;;;;;;;70.42;42.78;;;;;;;11.44;41.92;101522.83;1806265;78;21047;-80
2021/03/28 03:08:29;;;;;;;69.30;41.88;;;;;;;11.44;41.95;101524.17;1806298;79;21055;-83
2021/03/28 03:11:41;;;;;;;69.20;39.77;;;;;;;11.44;41.88;101524.17;1784406;79;21114;-81
2021/03/28 03:14:40;;;;;;;69.35;39.58;;;;;;;11.42;41.88;101525.66;1806565;79;21166;-82
2021/03/28 03:18:01;;;;;;;70.87;41.35;;;;;;;11.40;42.00;101525.45;1775058;80;21156;-81
2021/03/28 03:21:12;;;;;;;66.55;40.70;;;;;;;11.38;42.02;101528.26;1774650;80;21062;-83
2021/03/28 03:24:08;;;;;;;;;;;;;;;11.36;42.01;101531.59;1774106;80;21501;-81
2021/03/28 03:27:02;;;;;;;74.12;41.05;;;;;;;11.36;42.01;101532.08;1774705;80;20223;-79
2021/03/28 03:30:11;;;;;;;72.45;42.23;;;;;;;11.33;42.00;101531.84;1774602;80;21114;-79
2021/03/28 03:33:29;;;;;;;69.82;42.78;;;;;;;11.33;42.01;101532.34;1776464;79;21161;-78
2021/03/28 03:36:28;;;;;;;68.83;40.90;;;;;;;11.33;42.01;101537.70;1773497;80;22161;-80
2021/03/28 03:39:19;;;;;;;69.03;40.63;;;;;;;11.30;41.99;101539.31;1753406;80;21126;-82
2021/03/28 03:42:15;;;;;;;66.87;41.23;;;;;;;11.30;42.04;101537.48;1778400;77;21115;-76
2021/03/28 03:45:06;;;;;;;70.45;41.15;;;;;;;11.29;42.07;101534.94;1743266;77;21024;-76
2021/03/28 03:47:37;;;;;;;67.47;40.52;;;;;;;11.31;41.97;101539.66;1779305;78;21122;-78
2021/03/28 03:50:21;;;;;;;70.45;41.53;;;;;;;11.31;41.98;101546.36;1746690;81;21177;-78
2021/03/28 03:53:07;;;;;;;77.72;41.18;;;;;;;11.29;42.03;101542.98;1777516;80;21122;-76
2021/03/28 03:55:46;;;;;;;74.55;43.08;;;;;;;11.30;41.99;101548.70;1726982;79;21098;-76
2021/03/28 03:58:24;;;;;;;73.90;41.55;;;;;;;11.30;41.94;101548.20;1789690;76;21110;-75
2021/03/28 04:01:22;;;;;;;75.00;43.78;;;;;;;11.31;41.96;101547.70;1759731;77;21030;-75
2021/03/28 04:04:25;;;;;;;73.62;41.98;;;;;;;11.30;41.97;101550.05;1790700;76;21130;-78
2021/03/28 04:07:30;;;;;;;67.22;41.80;;;;;;;11.28;42.04;101553.37;1757455;77;21161;-78
2021/03/28 04:10:37;;;;;;;75.75;43.28;;;;;;;11.27;42.05;101561.06;1736604;80;21130;-77
2021/03/28 04:13:55;;;;;;;66.92;40.45;;;;;;;11.28;42.07;101558.73;1778732;80;21679;-79
2021/03/28 04:16:45;;;;;;;72.00;42.13;;;;;;;11.28;42.06;101554.70;1800502;79;21158;-76
2021/03/28 04:19:25;;;;;;;76.22;43.15;;;;;;;11.29;42.05;101555.91;1806080;79;21157;-81
2021/03/28 04:22:10;;;;;;;71.30;41.73;;;;;;;11.30;42.06;101558.93;1805963;79;21560;-79
2021/03/28 04:24:56;;;;;;;76.20;43.40;;;;;;;11.32;42.06;101554.30;1805889;79;21166;-78
2021/03/28 04:27:38;;;;;;;69.30;41.02;;;;;;;11.34;42.06;101564.88;1805941;78;21173;-80
2021/03/28 04:30:11;;;;;;;71.67;41.92;;;;;;;11.36;42.07;101564.27;1806738;79;21134;-78
2021/03/28 04:32:56;;;;;;;74.30;42.85;;;;;;;11.36;42.07;101568.30;1789524;79;21575;-78
2021/03/28 04:35:44;;;;;;;87.10;44.53;;;;;;;11.39;41.97;101573.36;1805063;79;21200;-82
2021/03/28 04:38:29;;;;;;;76.10;43.42;;;;;;;11.44;41.87;101568.44;1802847;79;25229;-78
2021/03/28 04:41:24;;;;;;;71.90;43.15;;;;;;;11.45;41.80;101570.16;1782833;79;21188;-77
2021/03/28 04:44:14;;;;;;;76.80;43.33;;;;;;;11.49;41.81;101574.73;1804399;79;21167;-81
2021/03/28 04:47:03;;;;;;;74.00;42.43;;;;;;;11.53;41.75;101574.82;1804892;79;21154;-83
2021/03/28 04:49:45;;;;;;;80.07;43.73;;;;;;;11.57;41.67;101574.91;1805279;79;21158;-82
2021/03/28 04:52:58;;;;;;;76.60;43.00;;;;;;;11.60;41.56;101576.83;1798116;79;21126;-80
2021/03/28 04:55:51;;;;;;;71.62;42.05;;;;;;;11.65;41.47;101573.23;1787545;79;21153;-83
2021/03/28 04:58:53;;;;;;;74.65;44.00;;;;;;;11.71;41.37;101576.34;1801074;78;21058;-80
2021/03/28 05:02:18;;;;;;;73.02;42.10;;;;;;;11.77;41.24;101580.69;1774877;79;21312;-80
2021/03/28 05:05:08;;;;;;;69.25;40.25;;;;;;;11.84;41.14;101587.21;1796533;79;21212;-79
2021/03/28 05:08:08;;;;;;;68.10;40.92;;;;;;;11.93;40.99;101588.22;1781256;79;21205;-79
2021/03/28 05:11:19;;;;;;;70.17;39.53;;;;;;;12.00;40.90;101589.87;1780507;79;21198;-80
2021/03/28 05:14:33;;;;;;;65.97;38.75;;;;;;;12.07;40.81;101593.17;1804095;79;21195;-80
2021/03/28 05:17:15;;;;;;;65.15;38.48;;;;;;;12.14;40.72;101597.01;1804370;78;21190;-77
2021/03/28 05:19:59;;;;;;;64.53;38.17;;;;;;;12.19;40.59;101589.37;1799321;78;21185;-78
2021/03/28 05:23:00;;;;;;;62.75;37.48;;;;;;;12.26;40.52;101590.98;1794752;79;21604;-76
2021/03/28 05:25:45;;;;;;;63.38;37.55;;;;;;;12.34;40.41;101590.29;1772593;79;21680;-77
2021/03/28 05:28:45;;;;;;;69.42;37.35;;;;;;;12.40;40.34;101591.08;1772480;80;21568;-80
2021/03/28 05:31:51;;;;;;;65.17;37.60;;;;;;;12.48;40.27;101593.88;1771923;80;21211;-80
2021/03/28 05:34:50;;;;;;;68.75;39.13;;;;;;;12.58;40.09;101591.18;1762874;79;21205;-84
2021/03/28 05:37:50;;;;;;;63.38;37.45;;;;;;;12.69;40.02;101597.26;1803270;79;21205;-78
2021/03/28 05:40:31;;;;;;;65.08;36.75;;;;;;;12.81;39.86;101595.73;1804342;79;21385;-79
2021/03/28 05:43:21;;;;;;;64.40;36.38;;;;;;;12.90;39.67;101601.12;1784220;79;21094;-78
2021/03/28 05:46:35;;;;;;;59.93;35.88;;;;;;;12.99;39.53;101598.52;1717622;82;21469;-79
2021/03/28 05:49:33;;;;;;;62.15;35.95;;;;;;;13.09;39.46;101599.37;1792542;79;21211;-82
2021/03/28 05:52:30;;;;;;;64.85;35.92;;;;;;;13.21;39.37;101597.66;1803563;79;21153;-83
2021/03/28 05:55:46;;;;;;;54.63;33.63;;;;;;;13.35;39.29;101604.94;1802838;79;21452;-76
2021/03/28 05:58:49;;;;;;;68.52;36.08;;;;;;;13.47;39.06;101606.45;1780633;78;21596;-76
2021/03/28 06:02:11;;;;;;;71.00;37.00;;;;;;;13.59;38.97;101607.12;1770710;80;21580;-79
2021/03/28 06:05:13;;;;;;;63.90;36.90;;;;;;;13.75;38.84;101611.33;1771054;80;21452;-79
2021/03/28 06:08:03;;;;;;;64.12;38.33;;;;;;;13.89;38.52;101605.93;1746829;80;21173;-84
2021/03/28 06:11:15;;;;;;;66.15;39.38;;;;;;;14.05;38.31;101610.16;1772380;80;21217;-79
2021/03/28 06:14:09;;;;;;;68.50;39.27;;;;;;;14.21;38.18;101606.26;1772887;80;21158;-79
2021/03/28 06:16:58;;;;;;;63.35;38.25;;;;;;;14.41;37.92;101607.47;1771813;80;21201;-82
2021/03/28 06:20:12;;;;;;;60.83;37.17;;;;;;;14.53;37.94;101607.58;1772102;80;21167;-80
2021/03/28 06:23:05;;;;;;;60.15;35.13;;;;;;;14.66;37.80;101601.80;1772398;80;21494;-80
2021/03/28 06:25:58;;;;;;;60.17;36.40;;;;;;;14.82;37.50;101600.58;1772469;78;21668;-81
2021/03/28 06:29:02;;;;;;;66.65;37.38;;;;;;;14.92;37.22;101601.81;1750964;80;21181;-80
2021/03/28 06:31:57;;;;;;;63.63;38.38;;;;;;;15.01;37.29;101598.16;1773007;80;21363;-81
2021/03/28 06:35:03;;;;;;;61.25;38.05;;;;;;;15.18;36.85;101603.16;1750998;80;21208;-83
2021/03/28 06:37:53;;;;;;;63.25;36.80;;;;;;;15.34;36.72;101599.69;1774229;80;21193;-77
2021/03/28 06:40:48;;;;;;;67.40;38.02;;;;;;;15.52;36.53;101597.74;1774117;80;21173;-79
2021/03/28 06:43:39;;;;;;;63.58;34.73;;;;;;;15.69;36.33;101603.58;1773112;80;21169;-81
2021/03/28 06:47:03;;;;;;;63.75;32.98;;;;;;;15.84;36.13;101602.95;1796518;79;21193;-81
2021/03/28 06:50:23;;;;;;;47.08;28.92;;;;;;;15.94;35.84;101603.64;1805628;79;21067;-83
2021/03/28 06:53:29;;;;;;;48.28;27.65;;;;;;;16.00;35.21;101611.11;1804769;79;21133;-81
2021/03/28 06:56:48;;;;;;;52.25;28.95;;;;;;;16.04;34.91;101609.77;1775115;79;21173;-83
2021/03/28 06:59:41;;;;;;;46.63;27.98;;;;;;;16.06;34.57;101616.35;1772094;80;21187;-78
2021/03/28 07:02:32;;;;;;;54.10;28.83;;;;;;;16.05;34.62;101612.80;1773382;80;21158;-83
2021/03/28 07:05:22;;;;;;;49.08;28.60;;;;;;;16.05;34.61;101614.16;1737404;80;21560;-78
2021/03/28 07:08:07;;;;;;;49.55;27.05;;;;;;;16.07;34.54;101610.77;1781126;78;21047;-82
2021/03/28 07:11:11;;;;;;;44.13;26.50;;;;;;;16.10;34.54;101613.15;1795791;78;22231;-79
2021/03/28 07:14:17;;;;;;;40.28;24.55;;;;;;;16.14;34.37;101619.08;1772157;80;21209;-81
2021/03/28 07:17:21;;;;;;;39.63;23.40;;;;;;;16.22;33.99;101614.53;1776987;79;21511;-81
2021/03/28 07:20:26;;;;;;;41.73;24.52;;;;;;;16.40;33.99;101612.19;1770930;80;21251;-80
2021/03/28 07:23:28;;;;;;;44.33;23.20;;;;;;;16.60;33.95;101609.47;1770850;80;21189;-81
2021/03/28 07:26:51;;;;;;;35.92;22.05;;;;;;;16.87;33.32;101606.95;1770915;80;22250;-81
2021/03/28 07:29:50;;;;;;;38.78;23.07;;;;;;;17.19;32.89;101605.19;1772148;80;21206;-81
2021/03/28 07:32:29;;;;;;;39.33;23.02;;;;;;;17.58;32.09;101604.39;1772481;80;21182;-81
2021/03/28 07:35:27;;;;;;;52.23;23.75;;;;;;;17.91;31.26;101609.16;1751474;78;21490;-81
2021/03/28 07:38:36;;;;;;;40.45;24.20;;;;;;;18.19;30.71;101607.61;1781376;79;21218;-84
2021/03/28 07:41:29;;;;;;;54.53;33.00;;;;;;;18.53;30.40;101609.55;1773821;79;21492;-80
2021/03/28 07:44:40;;;;;;;50.75;32.98;;;;;;;18.83;30.88;101607.80;1801305;79;21177;-82
2021/03/28 07:47:52;;;;;;;58.08;34.05;;;;;;;19.05;30.58;101609.61;1779900;78;21205;-82
2021/03/28 07:51:01;;;;;;;58.75;36.70;;;;;;;19.26;30.43;101606.17;1773704;80;21169;-77
2021/03/28 07:53:53;;;;;;;;;;;;;;;19.44;30.31;101609.84;1754469;79;21104;-78
2021/03/28 07:57:03;;;;;;;56.58;34.43;;;;;;;19.63;30.08;101601.67;1774144;80;20588;-79
2021/03/28 07:59:40;;;;;;;56.63;33.67;;;;;;;19.76;29.98;101596.41;1773529;80;21141;-83
2021/03/28 08:02:37;;;;;;;57.85;34.65;;;;;;;19.96;29.48;101599.34;1751036;80;21212;-84
2021/03/28 08:05:57;;;;;;;53.42;33.23;;;;;;;20.11;29.10;101600.13;1774603;79;21225;-80
2021/03/28 08:08:44;;;;;;;51.13;32.42;;;;;;;20.22;28.79;101599.63;1772803;79;21341;-80
2021/03/28 08:11:31;;;;;;;47.20;30.25;;;;;;;20.35;28.25;101598.05;1755783;79;21170;-79
2021/03/28 08:14:27;;;;;;;46.48;30.00;;;;;;;20.43;28.15;101595.20;1734540;80;21201;-79
2021/03/28 08:17:34;;;;;;;48.20;30.35;;;;;;;20.49;27.79;101591.75;1773806;80;21153;-78
2021/03/28 08:20:28;;;;;;;50.08;31.60;;;;;;;20.55;27.67;101592.32;1742189;80;21248;-79
2021/03/28 08:23:28;;;;;;;47.85;29.75;;;;;;;20.60;27.66;101596.66;1796415;79;21150;-82
2021/03/28 08:26:17;;;;;;;46.60;29.05;;;;;;;20.65;27.48;101596.06;1791379;78;21228;-78
2021/03/28 08:29:07;;;;;;;48.68;29.87;;;;;;;20.63;27.29;101592.19;1770861;79;21177;-76
2021/03/28 08:31:50;;;;;;;;;;;;;;;20.61;27.39;101584.72;1776115;80;21176;-77
2021/03/28 08:34:55;;;;;;;44.48;29.92;;;;;;;20.62;27.11;101589.15;1796973;78;20290;-80
2021/03/28 08:37:47;;;;;;;43.15;28.90;;;;;;;20.65;27.03;101586.02;1773145;80;21276;-77
2021/03/28 08:41:12;;;;;;;52.17;29.80;;;;;;;20.65;27.09;101583.29;1750822;79;21189;-78
2021/03/28 08:44:05;;;;;;;40.00;29.18;;;;;;;20.68;26.95;101578.82;1772037;80;21185;-80
2021/03/28 08:47:06;;;;;;;42.98;29.77;;;;;;;20.37;27.38;101583.75;1762173;79;21213;-81
2021/03/28 08:49:58;;;;;;;44.35;30.35;;;;;;;20.65;26.91;101578.37;1780563;79;21106;-81
2021/03/28 08:53:23;;;;;;;43.87;29.45;;;;;;;20.60;26.90;101583.05;1780394;79;21654;-80
2021/03/28 08:56:46;;;;;;;46.15;30.30;;;;;;;20.48;27.02;101575.08;1776238;79;21711;-80
2021/03/28 08:59:46;;;;;;;45.83;28.60;;;;;;;20.52;26.92;101579.93;1772887;79;21263;-82
2021/03/28 09:02:55;;;;;;;43.13;29.60;;;;;;;20.54;26.95;101572.95;1772711;80;21157;-80
2021/03/28 09:05:50;;;;;;;45.50;28.60;;;;;;;20.54;26.87;101572.95;1773874;78;21253;-79
2021/03/28 09:08:34;;;;;;;48.25;27.65;;;;;;;20.50;26.84;101567.58;1767859;79;21596;-81
2021/03/28 09:11:47;;;;;;;39.27;25.85;;;;;;;20.50;26.63;101577.10;1800544;79;21183;-80
2021/03/28 09:14:36;;;;;;;43.28;28.35;;;;;;;20.43;26.39;101565.27;1809184;79;21198;-80
2021/03/28 09:17:26;;;;;;;42.33;28.38;;;;;;;20.37;26.77;101568.78;1737329;82;21193;-77
2021/03/28 09:20:26;;;;;;;41.68;27.32;;;;;;;20.31;26.66;101564.14;1762207;81;21786;-79
2021/03/28 09:23:40;;;;;;;34.63;23.90;;;;;;;20.22;26.58;101560.70;1753638;80;21696;-80
2021/03/28 09:26:35;;;;;;;36.35;23.55;;;;;;;20.14;26.45;101563.55;1802654;79;21182;-79
2021/03/28 09:29:33;;;;;;;36.80;23.77;;;;;;;20.00;26.62;101561.21;1784632;78;21254;-82
2021/03/28 09:32:19;;;;;;;33.88;22.85;;;;;;;19.89;26.53;101562.55;1738201;81;21715;-80
2021/03/28 09:35:07;;;;;;;27.73;19.20;;;;;;;19.76;26.35;101557.83;1725277;82;21204;-78
2021/03/28 09:38:07;;;;;;;;;;;;;;;19.65;26.08;101556.95;1749553;81;21819;-79
2021/03/28 09:40:50;;;;;;;29.60;19.15;;;;;;;19.57;26.58;101556.18;1748296;82;20299;-80
2021/03/28 09:43:46;;;;;;;27.55;18.52;;;;;;;19.45;26.47;101551.25;1722273;82;21729;-79
2021/03/28 09:46:40;;;;;;;29.63;17.67;;;;;;;19.41;26.41;101549.10;1802766;79;21232;-78
2021/03/28 09:49:18;;;;;;;26.68;17.07;;;;;;;19.38;26.36;101550.83;1797867;78;21266;-81
2021/03/28 09:52:12;;;;;;;25.05;17.73;;;;;;;19.32;26.25;101551.59;1774108;80;21711;-77
2021/03/28 09:55:17;;;;;;;25.97;17.57;;;;;;;19.26;26.25;101547.25;1793930;79;21190;-81
2021/03/28 09:58:17;;;;;;;29.35;17.35;;;;;;;19.22;26.58;101544.58;1802884;79;21177;-81
2021/03/28 10:01:03;;;;;;;35.10;20.33;;;;;;;19.23;26.43;101536.75;1803976;79;21174;-82
2021/03/28 10:03:58;;;;;;;32.75;21.60;;;;;;;19.17;26.31;101531.25;1804152;78;21290;-80
2021/03/28 10:06:28;;;;;;;35.78;23.73;;;;;;;19.10;26.44;101531.14;1806229;79;21127;-81
2021/03/28 10:09:03;;;;;;;31.68;19.07;;;;;;;19.10;26.23;101538.45;1803315;79;21173;-81
2021/03/28 10:11:44;;;;;;;34.58;18.85;;;;;;;19.04;26.15;101531.06;1798687;77;21195;-80
2021/03/28 10:14:50;;;;;;;28.95;18.12;;;;;;;19.00;26.14;101530.59;1796801;79;21204;-80
2021/03/28 10:17:45;;;;;;;29.60;19.32;;;;;;;18.96;26.25;101530.62;1782011;79;21189;-80
2021/03/28 10:20:37;;;;;;;33.85;19.00;;;;;;;18.92;26.18;101519.81;1781929;79;21168;-76
2021/03/28 10:23:35;;;;;;;27.55;18.35;;;;;;;18.93;26.22;101522.84;1772150;79;21173;-77
2021/03/28 10:26:16;;;;;;;29.23;18.35;;;;;;;18.92;26.08;101521.17;1768139;79;21220;-78
2021/03/28 10:29:11;;;;;;;35.55;19.95;;;;;;;18.86;26.11;101519.21;1804157;79;21481;-78
2021/03/28 10:32:16;;;;;;;30.65;20.23;;;;;;;18.79;26.32;101519.62;1788440;79;21162;-78
2021/03/28 10:35:24;;;;;;;34.55;22.27;;;;;;;18.62;26.60;101519.77;1757380;80;21213;-79
2021/03/28 10:38:24;;;;;;;34.38;22.93;;;;;;;18.51;27.12;101511.55;1796080;79;21462;-81
2021/03/28 10:41:17;;;;;;;34.33;20.45;;;;;;;18.48;27.46;101510.55;1803494;79;21796;-80
2021/03/28 10:44:15;;;;;;;29.98;20.70;;;;;;;18.48;27.17;101506.48;1777315;79;21180;-80
2021/03/28 10:47:31;;;;;;;32.10;19.90;;;;;;;18.47;27.15;101507.52;1753808;79;21236;-81
2021/03/28 10:50:45;;;;;;;28.05;20.02;;;;;;;18.45;26.95;101501.45;1773253;79;21190;-78
2021/03/28 10:54:03;;;;;;;26.12;17.70;;;;;;;18.40;27.19;101507.11;1769892;80;21185;-81
2021/03/28 10:57:12;;;;;;;28.95;19.32;;;;;;;18.40;27.16;101503.03;1773010;79;21189;-79
2021/03/28 11:00:24;;;;;;;41.15;22.30;;;;;;;18.33;27.14;101500.20;1775003;79;21205;-81
2021/03/28 11:03:29;;;;;;;34.67;22.32;;;;;;;18.27;27.55;101501.45;1777467;78;21193;-79
2021/03/28 11:06:42;;;;;;;40.38;21.42;;;;;;;18.21;27.92;101494.87;1772533;80;21205;-81
2021/03/28 11:09:34;;;;;;;29.05;19.67;;;;;;;18.14;28.02;101494.78;1770941;80;21205;-81
2021/03/28 11:12:32;;;;;;;38.28;22.25;;;;;;;18.05;27.55;101495.03;1786206;79;21174;-78
2021/03/28 11:15:30;;;;;;;31.93;21.70;;;;;;;17.90;28.08;101497.70;1787092;79;21165;-80
2021/03/28 11:18:34;;;;;;;31.42;20.23;;;;;;;17.81;28.33;101493.36;1778970;79;21197;-81
2021/03/28 11:21:27;;;;;;;28.57;19.00;;;;;;;17.75;28.23;101493.55;1775596;79;21200;-79
2021/03/28 11:24:26;;;;;;;31.37;20.60;;;;;;;17.74;28.34;101490.51;1772257;79;21205;-81
2021/03/28 11:27:30;;;;;;;30.00;19.75;;;;;;;17.72;28.32;101498.80;1773901;79;21198;-77
2021/03/28 11:30:32;;;;;;;32.08;19.45;;;;;;;17.72;28.17;101490.66;1741166;80;21165;-77
2021/03/28 11:33:31;;;;;;;32.03;20.92;;;;;;;17.73;28.40;101490.15;1771682;80;21266;-79
2021/03/28 11:36:22;;;;;;;31.30;21.10;;;;;;;17.68;28.67;101489.34;1772405;80;21213;-78
2021/03/28 11:39:17;;;;;;;36.53;19.82;;;;;;;17.64;28.54;101496.13;1773006;80;21278;-78
2021/03/28 11:42:14;;;;;;;25.05;16.50;;;;;;;17.53;28.66;101489.75;1774011;80;21185;-81
2021/03/28 11:44:43;;;;;;;20.43;14.83;;;;;;;17.44;28.10;101494.88;1772853;80;21197;-78
2021/03/28 11:47:16;;;;;;;23.73;16.00;;;;;;;17.36;27.82;101486.83;1768165;80;21173;-78
2021/03/28 11:53:08;;;;;;;26.85;16.85;;;;;;;17.39;27.83;101481.03;1827932;76;22722;-81
2021/03/28 11:55:51;;;;;;;23.55;15.15;;;;;;;17.31;27.87;101483.81;1783751;79;21192;-80
2021/03/28 11:58:56;;;;;;;22.65;14.70;;;;;;;17.20;27.84;101480.45;1809340;79;21098;-82
2021/03/28 12:02:02;;;;;;;33.00;20.57;;;;;;;17.17;27.82;101475.41;1765297;79;21197;-81
2021/03/28 12:04:38;;;;;;;40.08;21.80;;;;;;;17.12;27.99;101469.69;1771777;80;21180;-81
2021/03/28 12:07:25;;;;;;;40.00;25.25;;;;;;;17.03;28.43;101472.06;1753703;81;21189;-79
2021/03/28 12:10:07;;;;;;;44.58;24.98;;;;;;;17.08;28.63;101468.84;1760833;80;21198;-80
2021/03/28 12:12:49;;;;;;;40.20;24.00;;;;;;;17.07;28.96;101466.64;1753169;80;21239;-80
2021/03/28 12:15:46;;;;;;;38.73;23.05;;;;;;;17.10;29.14;101467.66;1755774;80;21033;-81
2021/03/28 12:18:26;;;;;;;38.48;22.65;;;;;;;17.12;29.10;101464.76;1708417;81;21195;-78
2021/03/28 12:21:08;;;;;;;35.85;21.55;;;;;;;17.08;29.20;101465.64;1780185;80;21165;-79
2021/03/28 12:23:57;;;;;;;38.48;22.13;;;;;;;16.99;29.29;101451.81;1780528;80;21204;-81
2021/03/28 12:26:41;;;;;;;40.88;22.52;;;;;;;16.94;29.35;101452.83;1780405;80;21200;-78
2021/03/28 12:29:31;;;;;;;35.03;22.37;;;;;;;16.92;29.35;101447.59;1781132;80;21290;-77
2021/03/28 12:31:58;;;;;;;38.55;23.22;;;;;;;16.94;29.49;101447.41;1780536;80;21695;-79
2021/03/28 12:34:32;;;;;;;;;;;;;;;16.98;29.63;101438.77;1752388;80;21209;-80
2021/03/28 12:37:10;;;;;;;32.88;19.57;;;;;;;17.00;29.43;101426.42;1780496;80;20363;-78
2021/03/28 12:39:46;;;;;;;31.68;19.92;;;;;;;17.02;29.29;101436.55;1780085;80;21177;-82
2021/03/28 12:42:26;;;;;;;33.73;20.15;;;;;;;17.05;29.34;101430.80;1783090;79;21724;-82
2021/03/28 12:45:13;;;;;;;30.10;20.12;;;;;;;17.08;29.18;101435.00;1780455;80;21181;-82
2021/03/28 12:47:57;;;;;;;41.88;22.65;;;;;;;17.08;29.20;101430.45;1781420;80;21651;-79
2021/03/28 12:50:32;;;;;;;34.43;21.10;;;;;;;17.06;29.43;101427.06;1749652;79;21762;-79
2021/03/28 12:53:15;;;;;;;38.25;21.48;;;;;;;17.05;29.55;101423.19;1777684;80;21534;-81
2021/03/28 12:55:50;;;;;;;27.22;19.17;;;;;;;17.02;29.52;101423.02;1781001;80;21247;-80
2021/03/28 12:58:41;;;;;;;33.53;20.25;;;;;;;16.99;29.00;101420.17;1781433;79;21231;-84
2021/03/28 13:01:33;;;;;;;30.15;19.98;;;;;;;16.98;28.79;101414.92;1781492;80;21185;-81
2021/03/28 13:04:22;;;;;;;29.82;19.57;;;;;;;16.97;28.75;101414.59;1780942;79;21229;-79
2021/03/28 13:06:51;;;;;;;32.58;18.70;;;;;;;16.93;28.69;101410.55;1801201;79;21632;-80
2021/03/28 13:09:33;;;;;;;27.77;17.23;;;;;;;16.94;28.68;101409.52;1772756;79;21707;-79
2021/03/28 13:12:17;;;;;;;25.50;16.45;;;;;;;16.94;28.61;101409.04;1773465;80;21229;-79
2021/03/28 13:14:49;;;;;;;26.33;18.32;;;;;;;16.98;28.33;101402.73;1779287;80;21168;-78
2021/03/28 13:17:28;;;;;;;27.48;17.70;;;;;;;17.00;27.71;101402.07;1780973;80;21351;-82